Time;durP1;ratioP1;P1;durP2;ratioP2;P2;SDS_P1;SDS_P2;PMS_P1;PMS_P2;Temp;Humidity;BMP_temperature;BMP_pressure;BME280_temperature;BME280_humidity;BME280_pressure;Samples;Min_cycle;Max_cycle;Signal;HPM_P1;HPM_P2
2021/12/26 00:02:23;;;;;;;1.70;1.60;;;-6.80;99.90;;;;;;5046410;28;20044;-83
2021/12/26 00:04:50;;;;;;;1.60;1.50;;;-6.90;99.90;;;;;;5064164;28;20057;-82
2021/12/26 00:07:16;;;;;;;1.55;1.45;;;-7.00;99.90;;;;;;5043969;28;20101;-82
2021/12/26 00:09:41;;;;;;;1.60;1.50;;;-7.00;99.90;;;;;;5044475;28;20041;-82
2021/12/26 00:12:08;;;;;;;1.60;1.50;;;-6.90;99.90;;;;;;5054471;28;20492;-82
2021/12/26 00:14:34;;;;;;;1.77;1.67;;;;;;;;;;5059722;28;20037;-82
2021/12/26 00:16:59;;;;;;;1.50;1.40;;;-7.00;99.90;;;;;;5040815;28;20065;-83
2021/12/26 00:19:26;;;;;;;1.73;1.63;;;-7.10;99.90;;;;;;5060611;28;20037;-83
2021/12/26 00:21:51;;;;;;;1.95;1.85;;;-7.00;99.90;;;;;;5059659;28;20038;-83
2021/12/26 00:24:18;;;;;;;1.40;1.30;;;-7.00;99.90;;;;;;5044581;28;20055;-83
2021/12/26 00:26:44;;;;;;;1.70;1.60;;;-7.10;99.90;;;;;;5061970;28;20386;-83
2021/12/26 00:29:10;;;;;;;1.50;1.40;;;-5.80;99.90;;;;;;5052558;28;20056;-83
2021/12/26 00:31:35;;;;;;;1.73;1.63;;;-7.10;99.90;;;;;;5045454;28;20052;-82
2021/12/26 00:34:01;;;;;;;1.52;1.42;;;-7.10;99.90;;;;;;5062250;28;20029;-82
2021/12/26 00:36:27;;;;;;;1.30;1.20;;;-7.20;99.90;;;;;;5050819;28;20037;-82
2021/12/26 00:38:52;;;;;;;1.70;1.60;;;-7.10;99.90;;;;;;5063984;28;20513;-82
2021/12/26 00:41:18;;;;;;;1.58;1.48;;;-7.20;99.90;;;;;;5064598;28;20045;-83
2021/12/26 00:43:45;;;;;;;1.75;1.65;;;;;;;;;;5064979;28;20063;-83
2021/12/26 00:46:10;;;;;;;1.45;1.35;;;-7.10;99.90;;;;;;5039857;28;20040;-84
2021/12/26 00:48:36;;;;;;;1.48;1.38;;;-7.10;99.90;;;;;;5043307;28;20123;-84
2021/12/26 00:51:01;;;;;;;1.33;1.23;;;-7.10;99.90;;;;;;5059904;28;20029;-84
2021/12/26 00:53:28;;;;;;;2.72;2.50;;;-7.10;99.90;;;;;;5063312;28;20142;-83
2021/12/26 00:55:54;;;;;;;2.40;1.92;;;;;;;;;;5069215;28;20067;-83
2021/12/26 00:58:20;;;;;;;1.88;1.77;;;-7.00;99.90;;;;;;5056578;28;20175;-83
2021/12/26 01:00:49;;;;;;;1.50;1.40;;;-7.00;99.90;;;;;;5060268;28;20048;-83
2021/12/26 01:03:16;;;;;;;1.40;1.30;;;-7.00;99.90;;;;;;5062827;28;20045;-82
2021/12/26 01:05:53;;;;;;;1.50;1.40;;;-7.00;99.90;;;;;;5062493;28;20045;-82
2021/12/26 01:08:21;;;;;;;1.58;1.48;;;-6.90;99.90;;;;;;5066691;28;20064;-83
2021/12/26 01:11:00;;;;;;;1.90;1.80;;;-7.00;99.90;;;;;;5045752;28;20041;-83
2021/12/26 01:13:37;;;;;;;1.92;1.80;;;-7.00;99.90;;;;;;5059440;28;20052;-83
2021/12/26 01:16:06;;;;;;;1.50;1.40;;;-7.00;99.90;;;;;;5059481;28;20153;-83
2021/12/26 01:18:35;;;;;;;2.00;1.90;;;-7.00;99.90;;;;;;5050393;28;20037;-83
2021/12/26 01:21:16;;;;;;;2.25;2.05;;;-6.30;99.90;;;;;;5059729;28;20056;-83
2021/12/26 01:23:51;;;;;;;1.40;1.30;;;-6.90;99.90;;;;;;5059514;28;20069;-84
2021/12/26 01:26:17;;;;;;;1.85;1.70;;;-6.90;99.90;;;;;;5050965;28;20059;-84
2021/12/26 01:28:43;;;;;;;1.67;1.58;;;-7.00;99.90;;;;;;5062495;28;20067;-84
2021/12/26 01:31:09;;;;;;;1.60;1.50;;;-7.00;99.90;;;;;;5056894;28;20037;-82
2021/12/26 01:33:35;;;;;;;1.50;1.40;;;-7.00;99.90;;;;;;5060445;28;20049;-82
2021/12/26 01:36:02;;;;;;;1.73;1.63;;;-7.00;99.90;;;;;;5045505;28;20134;-83
2021/12/26 01:38:28;;;;;;;1.55;1.45;;;-7.10;99.90;;;;;;5039869;28;20154;-83
2021/12/26 01:40:56;;;;;;;1.58;1.48;;;-7.00;99.90;;;;;;5061551;28;20067;-82
2021/12/26 01:43:27;;;;;;;1.77;1.67;;;-7.10;99.90;;;;;;5061158;28;20063;-83
2021/12/26 01:45:54;;;;;;;2.05;1.95;;;-7.00;99.90;;;;;;5057680;28;20051;-83
2021/12/26 01:48:21;;;;;;;1.42;1.33;;;-7.10;99.90;;;;;;5057797;28;20033;-83
2021/12/26 01:50:49;;;;;;;1.50;1.40;;;-7.10;99.90;;;;;;5057619;28;20059;-83
2021/12/26 01:53:15;;;;;;;1.65;1.55;;;-7.10;99.90;;;;;;5058768;28;20075;-83
2021/12/26 01:55:44;;;;;;;1.50;1.40;;;-7.10;99.90;;;;;;5061777;28;20045;-84
2021/12/26 01:58:19;;;;;;;1.42;1.33;;;-7.10;99.90;;;;;;5052601;28;20120;-84
2021/12/26 02:00:49;;;;;;;1.40;1.30;;;-7.00;99.90;;;;;;5055568;28;20059;-84
2021/12/26 02:03:15;;;;;;;1.73;1.63;;;-7.10;99.90;;;;;;5061290;28;20056;-84
2021/12/26 02:05:41;;;;;;;1.60;1.50;;;-7.10;99.90;;;;;;5046248;28;20057;-85
2021/12/26 02:08:07;;;;;;;1.50;1.40;;;-7.10;99.90;;;;;;5058498;28;20070;-84
2021/12/26 02:10:33;;;;;;;1.70;1.60;;;-7.20;99.90;;;;;;5067868;28;20048;-84
2021/12/26 02:12:59;;;;;;;1.92;1.77;;;-7.10;99.90;;;;;;5061980;28;20033;-84
2021/12/26 02:15:25;;;;;;;1.40;1.30;;;-7.20;99.90;;;;;;5061442;28;20053;-85
2021/12/26 02:17:51;;;;;;;1.90;1.80;;;-7.10;99.90;;;;;;5058759;28;20356;-84
2021/12/26 02:20:37;;;;;;;1.40;1.30;;;-7.10;99.90;;;;;;5061130;28;20055;-84
2021/12/26 02:23:11;;;;;;;1.45;1.35;;;-7.10;99.90;;;;;;5042739;28;20048;-84
2021/12/26 02:28:12;;;;;;;1.50;1.40;;;-7.10;99.90;;;;;;5081105;28;20048;-83
2021/12/26 02:30:38;;;;;;;1.40;1.30;;;-7.10;99.90;;;;;;5060563;28;20052;-83
2021/12/26 02:33:07;;;;;;;1.88;1.77;;;-7.00;99.90;;;;;;5059859;28;20049;-83
2021/12/26 02:35:33;;;;;;;1.60;1.50;;;-7.00;99.90;;;;;;5066959;28;20048;-84
2021/12/26 02:37:59;;;;;;;1.23;1.15;;;-7.00;99.90;;;;;;5066104;28;21794;-84
2021/12/26 02:40:26;;;;;;;1.65;1.55;;;-7.00;99.90;;;;;;5050248;28;20187;-84
2021/12/26 02:42:51;;;;;;;1.38;1.27;;;-7.00;99.90;;;;;;5064110;28;20052;-84
2021/12/26 02:45:17;;;;;;;1.08;1.08;;;-7.00;99.90;;;;;;5052789;28;20038;-84
2021/12/26 02:47:45;;;;;;;1.50;1.40;;;-7.10;99.90;;;;;;5063109;28;20036;-84
2021/12/26 02:50:19;;;;;;;2.00;1.88;;;-7.20;99.90;;;;;;5063557;28;20041;-83
2021/12/26 02:52:48;;;;;;;1.60;1.50;;;-7.20;99.90;;;;;;5059425;28;20144;-83
2021/12/26 02:55:49;;;;;;;2.20;2.00;;;-7.10;99.90;;;;;;5057444;28;20060;-84
2021/12/26 02:58:48;;;;;;;1.42;1.33;;;-7.90;99.90;;;;;;4988882;28;20076;-84
2021/12/26 03:01:23;;;;;;;2.35;2.03;;;-7.20;99.90;;;;;;4970644;28;20042;-83
2021/12/26 03:03:49;;;;;;;1.60;1.50;;;-7.30;99.90;;;;;;5016868;28;20057;-83
2021/12/26 03:06:25;;;;;;;1.58;1.48;;;-7.30;99.90;;;;;;5063436;28;20044;-84
2021/12/26 03:08:54;;;;;;;1.60;1.50;;;-7.30;99.90;;;;;;5066002;28;20157;-84
2021/12/26 03:11:19;;;;;;;1.67;1.58;;;-7.30;99.90;;;;;;5059689;28;20079;-84
2021/12/26 03:13:45;;;;;;;1.67;1.58;;;-7.20;99.90;;;;;;5062138;28;20719;-84
2021/12/26 03:16:11;;;;;;;1.70;1.60;;;-7.30;99.90;;;;;;5063337;28;20501;-84
2021/12/26 03:18:36;;;;;;;1.85;1.75;;;-7.30;99.90;;;;;;5047676;28;20033;-83
2021/12/26 03:21:03;;;;;;;1.40;1.30;;;-7.20;99.90;;;;;;5047483;28;20156;-84
2021/12/26 03:23:29;;;;;;;1.50;1.40;;;-7.30;99.90;;;;;;5044486;28;20071;-83
2021/12/26 03:26:00;;;;;;;3.05;2.85;;;-7.20;99.90;;;;;;5041743;28;20101;-83
2021/12/26 03:28:27;;;;;;;1.58;1.48;;;-7.20;99.90;;;;;;5064746;28;20033;-83
2021/12/26 03:30:54;;;;;;;1.60;1.50;;;-7.20;99.90;;;;;;5047221;28;20119;-84
2021/12/26 03:33:21;;;;;;;1.80;1.70;;;-7.20;99.90;;;;;;5047531;28;20483;-84
2021/12/26 03:35:47;;;;;;;1.50;1.40;;;-7.20;99.90;;;;;;5062069;28;20079;-85
2021/12/26 03:38:14;;;;;;;1.40;1.30;;;-7.30;99.90;;;;;;5062319;28;20060;-84
2021/12/26 03:40:40;;;;;;;1.60;1.50;;;-7.20;99.90;;;;;;5045825;28;20045;-85
2021/12/26 03:43:07;;;;;;;1.70;1.60;;;-7.30;99.90;;;;;;5065072;28;20052;-84
2021/12/26 03:45:33;;;;;;;1.77;1.67;;;-7.30;99.90;;;;;;5065914;28;20162;-84
2021/12/26 03:47:59;;;;;;;1.70;1.60;;;-7.30;99.90;;;;;;5055320;28;20071;-84
2021/12/26 03:50:27;;;;;;;1.60;1.50;;;-7.20;99.90;;;;;;5062905;28;20033;-84
2021/12/26 03:52:56;;;;;;;1.58;1.48;;;-7.20;99.90;;;;;;5063536;28;20135;-84
2021/12/26 03:55:24;;;;;;;1.40;1.30;;;-7.30;99.90;;;;;;5066646;28;20037;-85
2021/12/26 03:57:49;;;;;;;1.00;1.00;;;-7.30;99.90;;;;;;5062613;28;20037;-83
2021/12/26 04:00:16;;;;;;;1.85;1.75;;;-7.20;99.90;;;;;;5062941;28;20431;-83
2021/12/26 04:02:43;;;;;;;1.77;1.67;;;-7.30;99.90;;;;;;5062938;28;20036;-83
2021/12/26 04:05:10;;;;;;;1.90;1.80;;;-7.30;99.90;;;;;;5066763;28;20037;-83
2021/12/26 04:07:36;;;;;;;1.90;1.80;;;-7.30;99.90;;;;;;5061266;28;20040;-83
2021/12/26 04:10:04;;;;;;;1.98;1.88;;;-7.30;99.90;;;;;;5062889;28;20040;-83
2021/12/26 04:12:35;;;;;;;1.70;1.60;;;-7.30;99.90;;;;;;5062541;28;20055;-83
2021/12/26 04:15:01;;;;;;;1.67;1.58;;;;;;;;;;5068945;28;20041;-83
2021/12/26 04:17:27;;;;;;;1.83;1.73;;;-7.40;99.90;;;;;;5062286;28;20128;-83
2021/12/26 04:19:52;;;;;;;1.75;1.65;;;-7.50;99.90;;;;;;5061227;28;20147;-83
2021/12/26 04:22:18;;;;;;;1.80;1.70;;;-7.40;99.90;;;;;;5068968;28;20128;-85
2021/12/26 04:24:43;;;;;;;1.65;1.55;;;-7.50;99.90;;;;;;5062228;28;20045;-85
2021/12/26 04:27:09;;;;;;;1.70;1.60;;;-7.50;99.90;;;;;;5053555;28;20106;-83
2021/12/26 04:29:35;;;;;;;1.73;1.63;;;-7.50;99.90;;;;;;5062908;28;20055;-83
2021/12/26 04:32:01;;;;;;;1.60;1.50;;;;;;;;;;5063931;28;20127;-83
2021/12/26 04:34:26;;;;;;;1.90;1.80;;;-7.50;99.90;;;;;;5061833;28;20059;-83
2021/12/26 04:36:52;;;;;;;1.90;1.80;;;;;;;;;;5068879;28;20036;-83
2021/12/26 04:39:18;;;;;;;1.60;1.50;;;-7.50;99.90;;;;;;5063977;28;20041;-83
2021/12/26 04:41:45;;;;;;;1.42;1.33;;;-7.60;99.90;;;;;;5062032;28;20050;-83
2021/12/26 04:44:12;;;;;;;1.73;1.63;;;-6.20;99.90;;;;;;5063956;28;20079;-82
2021/12/26 04:46:38;;;;;;;1.63;1.52;;;-7.60;99.90;;;;;;5058144;28;20045;-83
2021/12/26 04:49:05;;;;;;;1.70;1.60;;;-7.60;99.90;;;;;;5060735;28;20056;-84
2021/12/26 04:51:30;;;;;;;1.55;1.45;;;-7.60;99.90;;;;;;5059434;28;20071;-84
2021/12/26 04:53:56;;;;;;;2.15;1.98;;;-7.60;99.90;;;;;;5065372;28;20041;-84
2021/12/26 04:56:21;;;;;;;1.42;1.33;;;-7.50;99.90;;;;;;5061775;28;20045;-83
2021/12/26 04:58:47;;;;;;;1.67;1.58;;;-7.50;99.90;;;;;;5062748;28;20045;-83
2021/12/26 05:01:13;;;;;;;1.70;1.60;;;-7.50;99.90;;;;;;5068010;28;20041;-83
2021/12/26 05:03:40;;;;;;;1.42;1.33;;;-7.60;99.90;;;;;;5060953;28;20041;-84
2021/12/26 05:06:06;;;;;;;1.70;1.60;;;-7.60;99.90;;;;;;5062284;28;20045;-84
2021/12/26 05:08:31;;;;;;;1.52;1.42;;;-7.60;99.90;;;;;;5059398;28;20071;-84
2021/12/26 05:10:57;;;;;;;1.30;1.20;;;-7.60;99.90;;;;;;5061629;28;20048;-84
2021/12/26 05:13:23;;;;;;;1.38;1.27;;;-8.30;99.90;;;;;;5060327;28;20041;-84
2021/12/26 05:15:48;;;;;;;2.08;1.90;;;-7.10;99.90;;;;;;5042166;28;20048;-84
2021/12/26 05:18:14;;;;;;;1.67;1.58;;;-7.50;99.90;;;;;;5048953;28;20048;-85
2021/12/26 05:20:40;;;;;;;1.30;1.20;;;-7.50;99.90;;;;;;5040350;28;20051;-85
2021/12/26 05:23:05;;;;;;;1.60;1.50;;;-7.50;99.90;;;;;;5061166;28;20104;-85
2021/12/26 05:25:31;;;;;;;1.45;1.35;;;-7.50;99.90;;;;;;5064322;28;20045;-85
2021/12/26 05:27:57;;;;;;;1.63;1.52;;;-7.50;99.90;;;;;;5060026;28;20112;-85
2021/12/26 05:30:24;;;;;;;1.73;1.63;;;-7.40;99.90;;;;;;5041158;28;20053;-84
2021/12/26 05:32:50;;;;;;;1.40;1.30;;;-7.40;99.90;;;;;;5058438;28;20511;-83
2021/12/26 05:35:17;;;;;;;5.03;2.13;;;-7.50;99.90;;;;;;5059924;28;20063;-84
2021/12/26 05:37:45;;;;;;;1.70;1.55;;;-7.50;99.90;;;;;;5057715;28;20069;-82
2021/12/26 05:40:12;;;;;;;1.80;1.70;;;-7.50;99.90;;;;;;5042108;28;20056;-84
2021/12/26 05:42:38;;;;;;;1.75;1.65;;;-7.50;99.90;;;;;;5041967;28;20064;-84
2021/12/26 05:45:06;;;;;;;1.77;1.67;;;-7.60;99.90;;;;;;5054431;28;20122;-84
2021/12/26 05:47:32;;;;;;;1.75;1.65;;;;;;;;;;5056233;28;20159;-84
2021/12/26 05:49:59;;;;;;;1.70;1.60;;;-7.60;99.90;;;;;;5042981;28;20103;-84
2021/12/26 05:52:25;;;;;;;1.67;1.58;;;-7.60;99.90;;;;;;5069253;28;20045;-84
2021/12/26 05:54:50;;;;;;;1.75;1.65;;;-7.60;99.90;;;;;;5072284;28;20045;-84
2021/12/26 05:57:16;;;;;;;1.40;1.30;;;-7.60;99.90;;;;;;5042529;28;20045;-83
2021/12/26 05:59:42;;;;;;;1.27;1.17;;;-7.60;99.90;;;;;;5072144;28;20069;-84
2021/12/26 06:02:09;;;;;;;1.60;1.50;;;-7.60;99.90;;;;;;5049344;28;20041;-83
2021/12/26 06:04:35;;;;;;;1.65;1.55;;;-7.50;99.90;;;;;;5066721;28;20091;-83
2021/12/26 06:07:00;;;;;;;1.85;1.75;;;-7.60;99.90;;;;;;5043034;28;20053;-83
2021/12/26 06:09:26;;;;;;;1.65;1.55;;;-7.60;99.90;;;;;;5061788;28;20115;-84
2021/12/26 06:11:52;;;;;;;1.48;1.38;;;-7.50;99.90;;;;;;5058917;28;20208;-84
2021/12/26 06:14:17;;;;;;;1.73;1.63;;;-7.50;99.90;;;;;;5060353;28;20037;-83
2021/12/26 06:16:43;;;;;;;1.60;1.50;;;-7.50;99.90;;;;;;5072057;28;20040;-83
2021/12/26 06:19:09;;;;;;;1.75;1.65;;;-7.50;99.90;;;;;;5055530;28;20037;-80
2021/12/26 06:21:34;;;;;;;2.42;2.22;;;-7.50;99.90;;;;;;5062683;28;20037;-82
2021/12/26 06:24:00;;;;;;;1.73;1.63;;;-7.40;99.90;;;;;;5062744;28;20052;-84
2021/12/26 06:26:27;;;;;;;1.73;1.63;;;-7.50;99.90;;;;;;5063048;28;20052;-84
2021/12/26 06:28:53;;;;;;;1.60;1.50;;;-7.50;99.90;;;;;;5049396;28;20061;-84
2021/12/26 06:31:19;;;;;;;1.52;1.42;;;-7.60;99.90;;;;;;5066168;28;20047;-82
2021/12/26 06:33:46;;;;;;;1.60;1.50;;;-7.50;99.90;;;;;;5062694;28;20069;-83
2021/12/26 06:36:12;;;;;;;1.75;1.65;;;-7.60;99.90;;;;;;5060474;28;20037;-83
2021/12/26 06:38:39;;;;;;;1.95;1.83;;;-7.50;99.90;;;;;;5060988;28;20037;-83
2021/12/26 06:41:06;;;;;;;1.65;1.55;;;-7.50;99.90;;;;;;5064195;28;20052;-83
2021/12/26 06:43:33;;;;;;;1.70;1.60;;;-7.50;99.90;;;;;;5054282;28;20466;-85
2021/12/26 06:46:00;;;;;;;1.60;1.50;;;-8.10;99.90;;;;;;5038521;28;20057;-84
2021/12/26 06:48:26;;;;;;;2.05;1.92;;;-7.50;99.90;;;;;;5053354;28;20060;-85
2021/12/26 06:50:52;;;;;;;1.40;1.30;;;-7.50;99.90;;;;;;5056393;28;20040;-84
2021/12/26 06:53:18;;;;;;;2.72;2.05;;;-7.50;99.90;;;;;;5042566;28;20044;-84
2021/12/26 06:55:45;;;;;;;1.40;1.30;;;-7.40;99.90;;;;;;5058513;28;20075;-84
2021/12/26 06:58:12;;;;;;;2.15;1.95;;;-7.40;99.90;;;;;;5043282;28;20123;-84
2021/12/26 07:00:38;;;;;;;1.60;1.50;;;-7.50;99.90;;;;;;5047476;28;20087;-84
2021/12/26 07:03:03;;;;;;;1.75;1.65;;;-7.50;99.90;;;;;;5048257;28;20270;-84
2021/12/26 07:05:29;;;;;;;1.83;1.73;;;-7.40;99.90;;;;;;5061452;28;20041;-84
2021/12/26 07:07:55;;;;;;;1.52;1.42;;;-7.50;99.90;;;;;;5060460;28;20047;-84
2021/12/26 07:10:21;;;;;;;1.38;1.27;;;-7.50;99.90;;;;;;5041299;28;20036;-84
2021/12/26 07:12:47;;;;;;;1.42;1.33;;;-7.40;99.90;;;;;;5043204;28;20123;-84
2021/12/26 07:15:13;;;;;;;1.65;1.55;;;-7.60;99.90;;;;;;5057395;28;20115;-84
2021/12/26 07:17:42;;;;;;;1.70;1.60;;;-7.50;99.90;;;;;;5040776;28;20136;-85
2021/12/26 07:20:10;;;;;;;3.53;3.25;;;-7.60;99.90;;;;;;5062297;28;20087;-83
2021/12/26 07:22:36;;;;;;;1.40;1.30;;;-7.50;99.90;;;;;;5061576;28;20048;-83
2021/12/26 07:25:04;;;;;;;1.83;1.73;;;-7.50;99.90;;;;;;5045733;28;20056;-84
2021/12/26 07:27:29;;;;;;;1.40;1.30;;;-7.40;99.90;;;;;;5078775;28;20040;-84
2021/12/26 07:29:58;;;;;;;2.00;1.85;;;-7.40;99.90;;;;;;5045651;28;20040;-84
2021/12/26 07:32:24;;;;;;;1.23;1.15;;;-7.50;99.90;;;;;;5055972;28;20037;-85
2021/12/26 07:34:50;;;;;;;1.35;1.25;;;-7.40;99.90;;;;;;5045233;28;20041;-85
2021/12/26 07:37:18;;;;;;;1.58;1.48;;;-7.40;99.90;;;;;;5045348;28;20044;-85
2021/12/26 07:39:44;;;;;;;1.70;1.60;;;-7.40;99.90;;;;;;5062034;28;20071;-85
2021/12/26 07:42:10;;;;;;;1.63;1.52;;;-7.40;99.90;;;;;;5072594;28;20105;-85
2021/12/26 07:44:36;;;;;;;1.52;1.42;;;-7.30;99.90;;;;;;5052947;28;20041;-83
2021/12/26 07:47:03;;;;;;;15.65;2.97;;;-7.30;99.90;;;;;;5061079;28;20041;-84
2021/12/26 07:49:29;;;;;;;1.67;1.58;;;-6.20;99.90;;;;;;5045496;28;20079;-84
2021/12/26 07:51:56;;;;;;;1.70;1.60;;;;;;;;;;5042501;28;20044;-84
2021/12/26 07:54:23;;;;;;;2.28;1.80;;;-7.30;99.90;;;;;;5060752;28;20061;-84
2021/12/26 07:56:50;;;;;;;1.80;1.70;;;-7.30;99.90;;;;;;5052965;28;20052;-84
2021/12/26 07:59:16;;;;;;;1.35;1.25;;;-7.40;99.90;;;;;;5061247;28;20122;-84
2021/12/26 08:01:42;;;;;;;1.30;1.20;;;-7.30;99.90;;;;;;5067901;28;20405;-84
2021/12/26 08:04:12;;;;;;;1.42;1.33;;;-7.40;99.90;;;;;;5045029;28;20037;-85
2021/12/26 08:06:38;;;;;;;1.98;1.88;;;-7.40;99.90;;;;;;5052845;28;20071;-83
2021/12/26 08:09:05;;;;;;;1.55;1.45;;;-7.30;99.90;;;;;;5062048;28;20049;-84
2021/12/26 08:11:31;;;;;;;1.65;1.55;;;-7.30;99.90;;;;;;5061603;28;20088;-83
2021/12/26 08:13:57;;;;;;;2.00;1.88;;;-7.20;99.90;;;;;;5061803;28;20186;-83
2021/12/26 08:16:23;;;;;;;1.55;1.45;;;-7.20;99.90;;;;;;5043762;28;20041;-83
2021/12/26 08:18:49;;;;;;;1.80;1.65;;;-7.20;99.90;;;;;;5058658;28;20063;-84
2021/12/26 08:21:14;;;;;;;1.30;1.20;;;-7.30;99.90;;;;;;5058266;28;20628;-85
2021/12/26 08:23:40;;;;;;;3.05;2.85;;;-7.30;99.90;;;;;;5052589;28;20041;-84
2021/12/26 08:26:06;;;;;;;1.70;1.60;;;-7.30;99.90;;;;;;5044903;28;20085;-83
2021/12/26 08:28:32;;;;;;;2.75;2.15;;;-7.20;99.90;;;;;;5044566;28;20052;-83
2021/12/26 08:30:57;;;;;;;1.50;1.40;;;-7.10;99.90;;;;;;5043223;28;20048;-85
2021/12/26 08:33:23;;;;;;;1.70;1.60;;;-7.00;99.90;;;;;;5061042;28;20044;-84
2021/12/26 08:35:49;;;;;;;1.42;1.33;;;-7.00;99.90;;;;;;5057199;28;20052;-85
2021/12/26 08:38:20;;;;;;;1.83;1.73;;;-6.90;99.90;;;;;;5044179;28;20083;-84
2021/12/26 08:40:47;;;;;;;1.90;1.75;;;-6.90;99.90;;;;;;5059805;28;20053;-84
2021/12/26 08:43:14;;;;;;;1.38;1.27;;;-6.90;99.90;;;;;;5045952;28;20199;-85
2021/12/26 08:45:39;;;;;;;2.08;1.92;;;-6.90;99.90;;;;;;5060044;28;20102;-84
2021/12/26 08:48:05;;;;;;;1.33;1.23;;;-6.20;99.90;;;;;;5058409;28;20033;-85
2021/12/26 08:50:31;;;;;;;2.28;2.05;;;-6.80;99.90;;;;;;5060873;28;20099;-84
2021/12/26 08:52:57;;;;;;;1.83;1.73;;;-6.70;99.90;;;;;;5054800;28;20374;-84
2021/12/26 08:55:26;;;;;;;1.65;1.55;;;-6.70;99.90;;;;;;5067826;28;20052;-83
2021/12/26 08:57:53;;;;;;;1.52;1.42;;;-6.70;99.90;;;;;;5053778;28;20047;-84
2021/12/26 09:00:20;;;;;;;1.80;1.70;;;-6.70;99.90;;;;;;5060461;28;20102;-83
2021/12/26 09:02:46;;;;;;;1.40;1.30;;;-6.60;99.90;;;;;;5070636;28;20052;-84
2021/12/26 09:05:12;;;;;;;1.77;1.67;;;-6.70;99.90;;;;;;5044547;28;20102;-84
2021/12/26 09:07:39;;;;;;;2.05;1.95;;;-6.20;99.90;;;;;;5042398;28;20045;-83
2021/12/26 09:10:06;;;;;;;2.05;1.95;;;-6.50;99.90;;;;;;5060941;28;20095;-84
2021/12/26 09:12:32;;;;;;;1.55;1.45;;;-6.20;99.90;;;;;;5053855;28;20043;-84
2021/12/26 09:14:58;;;;;;;1.50;1.40;;;-6.40;99.90;;;;;;5043357;28;20072;-84
2021/12/26 09:17:24;;;;;;;1.70;1.60;;;-6.50;99.90;;;;;;5049609;28;20060;-84
2021/12/26 09:19:49;;;;;;;1.75;1.65;;;-6.40;99.90;;;;;;5054564;28;20037;-84
2021/12/26 09:22:17;;;;;;;1.35;1.25;;;-6.40;99.90;;;;;;5059762;28;20485;-85
2021/12/26 09:24:44;;;;;;;1.55;1.45;;;-6.20;99.90;;;;;;5075973;28;20072;-85
2021/12/26 09:27:11;;;;;;;2.35;2.15;;;-6.20;99.90;;;;;;5049756;28;20033;-84
2021/12/26 09:29:36;;;;;;;1.80;1.70;;;-6.10;99.90;;;;;;5028833;28;20111;-84
2021/12/26 09:32:02;;;;;;;1.83;1.73;;;-6.10;99.90;;;;;;5056424;28;20044;-84
2021/12/26 09:34:30;;;;;;;1.55;1.45;;;-6.00;99.90;;;;;;5051662;28;20074;-84
2021/12/26 09:36:56;;;;;;;1.60;1.50;;;-6.00;99.90;;;;;;5059966;28;20040;-84
2021/12/26 09:39:23;;;;;;;1.65;1.55;;;-6.00;99.90;;;;;;5049976;28;20037;-84
2021/12/26 09:41:50;;;;;;;1.80;1.70;;;-5.90;99.90;;;;;;5049935;28;20037;-84
2021/12/26 09:44:15;;;;;;;3.13;2.60;;;-5.90;99.90;;;;;;5050284;28;20049;-84
2021/12/26 09:46:42;;;;;;;1.95;1.50;;;-5.90;99.90;;;;;;5054361;28;20123;-84
2021/12/26 09:49:07;;;;;;;1.60;1.50;;;-5.80;99.90;;;;;;5055605;28;20045;-84
2021/12/26 09:51:33;;;;;;;1.48;1.38;;;-5.70;99.90;;;;;;5032085;28;20492;-84
2021/12/26 09:54:00;;;;;;;1.70;1.60;;;-5.70;99.90;;;;;;5039407;28;20052;-83
2021/12/26 09:56:25;;;;;;;1.73;1.63;;;-5.60;99.90;;;;;;5055344;28;20083;-84
2021/12/26 09:59:00;;;;;;;1.60;1.50;;;-5.60;99.90;;;;;;5053787;28;20037;-84
2021/12/26 10:01:40;;;;;;;1.50;1.40;;;-5.40;99.90;;;;;;5057838;28;20065;-83
2021/12/26 10:04:24;;;;;;;1.50;1.40;;;-5.40;99.90;;;;;;5052389;28;20104;-85
2021/12/26 10:06:56;;;;;;;2.00;1.90;;;-5.30;99.90;;;;;;5070642;28;20041;-83
2021/12/26 10:09:22;;;;;;;1.60;1.50;;;-5.30;99.90;;;;;;5056113;28;20044;-83
2021/12/26 10:11:50;;;;;;;1.42;1.33;;;-5.20;99.90;;;;;;5057578;28;20124;-84
2021/12/26 10:14:24;;;;;;;2.08;1.98;;;-5.20;99.90;;;;;;5060100;28;20048;-84
2021/12/26 10:16:56;;;;;;;1.40;1.30;;;-5.00;99.90;;;;;;5059893;28;20037;-83
2021/12/26 10:19:22;;;;;;;1.13;1.13;;;-4.90;99.90;;;;;;5057029;28;20049;-84
2021/12/26 10:21:54;;;;;;;3.25;2.80;;;-4.90;99.90;;;;;;5049481;28;20056;-84
2021/12/26 10:24:26;;;;;;;1.52;1.42;;;-4.90;99.90;;;;;;5043381;28;20176;-84
2021/12/26 10:27:00;;;;;;;2.42;2.22;;;-4.80;99.90;;;;;;5051521;28;20103;-83
2021/12/26 10:29:44;;;;;;;1.40;1.30;;;-4.70;99.90;;;;;;5035168;28;20128;-84
2021/12/26 10:32:15;;;;;;;1.48;1.38;;;-4.70;99.90;;;;;;5058027;28;20126;-84
2021/12/26 10:34:44;;;;;;;1.50;1.40;;;-3.90;99.90;;;;;;5054969;28;20077;-84
2021/12/26 10:37:16;;;;;;;1.70;1.60;;;-4.50;99.90;;;;;;5033588;28;20106;-84
2021/12/26 10:39:47;;;;;;;1.42;1.33;;;-4.40;99.90;;;;;;5058294;28;20060;-85
2021/12/26 10:42:16;;;;;;;1.33;1.23;;;-4.40;99.90;;;;;;5056758;28;20052;-84
2021/12/26 10:44:49;;;;;;;1.10;1.10;;;-4.40;99.90;;;;;;5045613;28;20045;-84
2021/12/26 10:47:18;;;;;;;1.00;1.00;;;-4.30;99.90;;;;;;5040642;28;20048;-84
2021/12/26 10:49:45;;;;;;;1.10;1.10;;;-4.30;99.90;;;;;;5041171;28;20065;-85
2021/12/26 10:52:16;;;;;;;1.38;1.27;;;-4.00;99.90;;;;;;5054785;28;20041;-85
2021/12/26 10:54:47;;;;;;;1.38;1.27;;;-4.10;99.90;;;;;;5040843;28;20044;-84
2021/12/26 10:57:22;;;;;;;1.55;1.45;;;-4.10;99.90;;;;;;5058827;28;20120;-84
2021/12/26 11:00:02;;;;;;;1.23;1.13;;;-3.90;99.90;;;;;;5043077;28;20041;-84
2021/12/26 11:02:30;;;;;;;1.38;1.27;;;-3.90;99.90;;;;;;5053377;28;20056;-83
2021/12/26 11:05:02;;;;;;;1.40;1.30;;;-3.80;99.90;;;;;;5061151;28;20033;-84
2021/12/26 11:07:28;;;;;;;1.48;1.38;;;-3.70;99.90;;;;;;5047017;28;20038;-84
2021/12/26 11:10:03;;;;;;;1.25;1.15;;;-3.70;99.90;;;;;;5057147;28;20593;-84
2021/12/26 11:12:46;;;;;;;1.27;1.17;;;-3.60;99.90;;;;;;5054446;28;20063;-84
2021/12/26 11:15:13;;;;;;;1.67;1.58;;;-3.50;99.90;;;;;;5060558;28;20041;-85
2021/12/26 11:17:43;;;;;;;2.10;1.98;;;-3.50;99.90;;;;;;5044529;28;20063;-86
2021/12/26 11:20:16;;;;;;;1.35;1.25;;;-3.40;99.90;;;;;;5061716;28;20037;-85
2021/12/26 11:22:42;;;;;;;1.13;1.10;;;-3.30;99.90;;;;;;5075007;28;20065;-85
2021/12/26 11:25:08;;;;;;;1.20;1.10;;;-3.30;99.90;;;;;;5062790;28;20112;-84
2021/12/26 11:27:33;;;;;;;1.40;1.30;;;-3.30;99.90;;;;;;5058548;28;20508;-86
2021/12/26 11:29:59;;;;;;;2.35;2.15;;;-3.20;99.70;;;;;;5041371;28;20041;-85
2021/12/26 11:32:26;;;;;;;4.50;1.83;;;-2.80;99.90;;;;;;5044322;28;20207;-85
2021/12/26 11:34:53;;;;;;;1.40;1.30;;;-3.10;98.40;;;;;;5054735;28;20057;-85
2021/12/26 11:37:19;;;;;;;1.27;1.17;;;-3.10;99.10;;;;;;5063596;28;20092;-85
2021/12/26 11:39:45;;;;;;;1.30;1.20;;;-3.00;98.70;;;;;;5054527;28;20041;-85
2021/12/26 11:42:30;;;;;;;1.42;1.35;;;-3.00;99.60;;;;;;5052992;28;20083;-84
2021/12/26 11:45:21;;;;;;;2.15;2.05;;;-2.90;98.90;;;;;;5054750;28;20041;-85
2021/12/26 11:48:11;;;;;;;1.30;1.20;;;-2.90;99.00;;;;;;5059694;28;20182;-85
2021/12/26 11:51:04;;;;;;;1.15;1.10;;;-2.90;99.00;;;;;;5055677;28;20398;-85
2021/12/26 11:53:45;;;;;;;1.13;1.10;;;-2.90;98.40;;;;;;5061875;28;20546;-85
2021/12/26 11:56:18;;;;;;;5.18;2.45;;;-2.80;98.20;;;;;;5056368;28;20052;-85
2021/12/26 11:58:52;;;;;;;1.20;1.20;;;-2.80;97.60;;;;;;5055258;28;20343;-85
2021/12/26 12:01:20;;;;;;;1.30;1.20;;;-2.80;98.90;;;;;;5070272;28;20037;-86
2021/12/26 12:03:46;;;;;;;1.13;1.10;;;-2.70;98.20;;;;;;5044900;28;20526;-85
2021/12/26 12:06:26;;;;;;;1.35;1.25;;;-2.70;98.10;;;;;;5042179;28;20116;-86
2021/12/26 12:08:51;;;;;;;2.25;2.15;;;-2.70;98.90;;;;;;5053658;28;20045;-84
2021/12/26 12:11:17;;;;;;;1.65;1.55;;;-2.70;99.00;;;;;;5030623;28;20040;-83
2021/12/26 12:13:48;;;;;;;1.05;1.05;;;-2.60;99.60;;;;;;5048999;28;20449;-80
2021/12/26 12:16:23;;;;;;;1.10;1.10;;;-2.60;99.10;;;;;;5047265;28;20053;-84
2021/12/26 12:18:48;;;;;;;1.40;1.30;;;-2.50;99.40;;;;;;5058034;28;20037;-84
2021/12/26 12:21:17;;;;;;;1.30;1.20;;;-2.50;99.00;;;;;;5048138;28;20049;-84
2021/12/26 12:24:07;;;;;;;1.63;1.52;;;-2.50;99.40;;;;;;5050189;28;20029;-83
2021/12/26 12:26:47;;;;;;;1.42;1.33;;;-2.40;98.70;;;;;;5052052;28;20114;-83
2021/12/26 12:29:24;;;;;;;1.17;1.10;;;-2.40;99.40;;;;;;5070729;28;20037;-83
2021/12/26 12:32:11;;;;;;;1.80;1.70;;;-2.30;98.40;;;;;;5034699;28;20104;-85
2021/12/26 12:34:55;;;;;;;1.35;1.25;;;-2.10;98.10;;;;;;5047745;28;20048;-85
2021/12/26 12:37:40;;;;;;;1.30;1.20;;;-2.30;97.50;;;;;;5053687;28;20040;-84
2021/12/26 12:40:36;;;;;;;1.30;1.20;;;-2.20;97.50;;;;;;5059444;28;20033;-84
2021/12/26 12:43:11;;;;;;;1.42;1.33;;;-2.30;97.70;;;;;;5053587;28;20385;-84
2021/12/26 12:45:52;;;;;;;1.33;1.25;;;-2.20;97.70;;;;;;5028794;28;20072;-84
2021/12/26 12:48:33;;;;;;;1.38;1.27;;;-2.20;97.30;;;;;;5053802;28;20041;-84
2021/12/26 12:51:24;;;;;;;1.30;1.20;;;-2.20;98.30;;;;;;5052540;28;20045;-87
2021/12/26 12:53:54;;;;;;;1.67;1.58;;;-2.20;98.00;;;;;;5045897;28;20529;-86
2021/12/26 12:56:40;;;;;;;1.30;1.20;;;-2.20;99.00;;;;;;5035326;28;20091;-88
2021/12/26 12:59:15;;;;;;;1.20;1.13;;;-2.20;98.60;;;;;;5050212;28;20053;-87
2021/12/26 13:01:46;;;;;;;1.50;1.40;;;-2.10;98.80;;;;;;5050958;28;20056;-88